CYZX

CFB Greenwood Airport

Greenwood, Nova Scotia, Canada
METAR CYZX 172300Z 21013G18KT 12SM FEW030 SCT070 OVC250 25/20 A2983 RMK SC2AC2CI4 SLP101
Observed Flight Rules
Jul-17 @ 23:00 UTC (22 minutes ago) Visual Flight Rules
Wind Visibility Clouds
210° at 13 knots
 Gusting to 18 knots
12 miles
  • Few at 3,000' AGL
  • Scattered at 7,000' AGL
  • Overcast at 25,000' AGL
Temperatures Readings
Current 25°C / 77°F
Dewpoint 20°C / 68°F
Humidity 74%
Altimeter 29.83" Hg
Pressure 1010.1 hPa
Elevation 28
METAR CYZX 172300Z 21013G18KT 12SM FEW030 SCT070 OVC250 25/20 A2983 RMK SC2AC2CI4 SLP101
Observed Flight Rules
Jul-17 @ 23:00 UTC
(22 minutes ago)
VFR
Wind Visibility
210° at 13 knots
 Gusting to 18 knots
12 miles
Clouds
  • Few at 3,000' AGL
  • Scattered at 7,000' AGL
  • Overcast at 25,000' AGL
Temperature Dewpoint
25°C / 77°F 20°C / 68°F
Humidity Altimeter Pressure
74% 29.83" Hg 1010.1 hPa